Hlavní strana
METAR-TAF:

METAR-TAF

Letiště :

Letiště Benátky Marco Polo

Benátky, Itálie

zeměpisná šířka: 45-30N, zeměpisná délka: 012-20E, výška: 2 m

Aktuální stav počasí

Zpráva byla vytvořena před 38 minutami, v 04:20 UTC
Severní vítr 3 kt, proměnlivý mezi severozápadním a severoseverovýchodním
Teplota 19°C
Vlhkost vzduchu 94%
Tlak 1018 hPa
Viditelnost: 5000 m
kouřmo

METAR: LIPZ 270420Z 35003KT 310V020 5000 BR NSC 19/18 Q1018 NOSIG

Čas: 06:58 (04:58 UTC)

Předpověď počasí

Zpráva byla vytvořena před 5 hodinami a 58 minutami, v 23:00 UTC
Předpověď platná od 27 v 00 UTC do 28 v 06 UTC
Severovýchodní vítr 8 kt
Viditelnost 10 km a více
Skoro jasno ve výšce 4000 ft
Změna
od 27 v 08 UTC do 27 v 11 UTC
Jihovýchodní vítr 10 kt
Změna
od 27 v 16 UTC do 27 v 19 UTC
vítr z různých směrů 5 kt

TAF: LIPZ 262300Z 2700/2806 04008KT 9999 FEW040 BECMG 2708/2711 14010KT BECMG 2716/2719 VRB05KT

Stav a předpovědi počasí z více než 4 000 letišť (zprávy METAR a TAF).

Červené a žluté tečky na mapě představují dostupné meteorologické stanice.

Když kurzor umístíte na tečku, zobrazí se název stanice.

Pak kliknutím zobrazíte stav a předpověď počasí.

Chcete-li změnit mapu, kliknutím na zelené tlačítko se znaménkem +mapu přiblížíte, kliknutím na zelené tlačítko se znaménkem – mapu oddálíte a kliknutím na zelené šipky přejdete na sousední mapy.


METAR-TAF: